createdAt,value
2018-10-06T00:00:05.503Z,10.1666666667
2018-10-06T00:00:17.835Z,10.1666666667
2018-10-06T00:00:30.031Z,10.1666666667
2018-10-06T00:00:42.210Z,10.1666666667
2018-10-06T00:00:54.397Z,10.1666666667
2018-10-06T00:01:06.581Z,10.1666666667
2018-10-06T00:01:18.747Z,10.1666666667
2018-10-06T00:01:30.964Z,10.1666666667
2018-10-06T00:01:43.142Z,10.1666666667
2018-10-06T00:01:55.296Z,10.1666666667
2018-10-06T00:02:07.479Z,10.1666666667
2018-10-06T00:02:19.664Z,10.1111111111
2018-10-06T00:02:31.867Z,10.1666666667
2018-10-06T00:02:44.044Z,10.1666666667
2018-10-06T00:02:56.245Z,10.1666666667
2018-10-06T00:03:08.435Z,10.1666666667
2018-10-06T00:03:20.608Z,10.1666666667
2018-10-06T00:03:32.860Z,10.1111111111
2018-10-06T00:03:45.025Z,10.1111111111
2018-10-06T00:03:57.586Z,10.1111111111
2018-10-06T00:04:09.790Z,10.1111111111
2018-10-06T00:04:21.955Z,10.1111111111
2018-10-06T00:04:34.107Z,10.1111111111
2018-10-06T00:04:46.265Z,10.1111111111
2018-10-06T00:04:58.561Z,10.1111111111
2018-10-06T00:05:10.752Z,10.1111111111
2018-10-06T00:05:22.911Z,10.1111111111
2018-10-06T00:05:35.085Z,10.1111111111
2018-10-06T00:05:47.318Z,10.1111111111
2018-10-06T00:05:59.472Z,10.1111111111
2018-10-06T00:06:11.648Z,10.1111111111
2018-10-06T00:06:23.808Z,10.1111111111
2018-10-06T00:06:35.967Z,10.1111111111
2018-10-06T00:06:48.161Z,10.0555555556
2018-10-06T00:07:00.312Z,10.1111111111
2018-10-06T00:07:12.506Z,10.1111111111
2018-10-06T00:07:24.648Z,10.1111111111
2018-10-06T00:07:36.835Z,10.1111111111
2018-10-06T00:07:49.006Z,10.0555555556
2018-10-06T00:08:01.219Z,10.0555555556
2018-10-06T00:08:13.383Z,10.0555555556
2018-10-06T00:08:25.611Z,10.0555555556
2018-10-06T00:08:37.779Z,10.0555555556
2018-10-06T00:08:49.948Z,10.0555555556
2018-10-06T00:09:02.164Z,10.0555555556
2018-10-06T00:09:14.305Z,10.0555555556
2018-10-06T00:09:26.474Z,10.0555555556
2018-10-06T00:09:38.807Z,10.0555555556
2018-10-06T00:09:50.971Z,10.0555555556
2018-10-06T00:10:03.122Z,10.0555555556
2018-10-06T00:10:15.287Z,10.0555555556
2018-10-06T00:10:27.467Z,10.0555555556
2018-10-06T00:10:39.653Z,10.0555555556
2018-10-06T00:10:51.826Z,10.0555555556
2018-10-06T00:11:03.990Z,10
2018-10-06T00:11:16.150Z,10.0555555556
2018-10-06T00:11:28.299Z,10
2018-10-06T00:11:40.471Z,10
2018-10-06T00:11:52.646Z,10
2018-10-06T00:12:04.821Z,10.0555555556
2018-10-06T00:12:17.005Z,10
2018-10-06T00:12:29.156Z,10
2018-10-06T00:12:41.450Z,10
2018-10-06T00:12:53.618Z,10
2018-10-06T00:13:05.814Z,10
2018-10-06T00:13:17.979Z,10
2018-10-06T00:13:30.128Z,10
2018-10-06T00:13:42.337Z,10
2018-10-06T00:13:54.495Z,10
2018-10-06T00:14:06.662Z,9.94444444444
2018-10-06T00:14:18.819Z,10
2018-10-06T00:14:30.977Z,10
2018-10-06T00:14:43.330Z,9.94444444444
2018-10-06T00:14:55.479Z,10
2018-10-06T00:15:07.643Z,9.94444444444
2018-10-06T00:15:19.825Z,9.94444444444
2018-10-06T00:15:32.010Z,9.94444444444
2018-10-06T00:15:44.167Z,10
2018-10-06T00:15:56.367Z,9.94444444444
2018-10-06T00:16:08.642Z,9.94444444444
2018-10-06T00:16:20.807Z,9.94444444444
2018-10-06T00:16:32.966Z,9.94444444444
2018-10-06T00:16:45.123Z,9.88888888889
2018-10-06T00:16:57.275Z,9.94444444444
2018-10-06T00:17:10.029Z,9.94444444444
2018-10-06T00:17:22.187Z,9.94444444444
2018-10-06T00:17:34.348Z,9.94444444444
2018-10-06T00:17:46.501Z,9.94444444444
2018-10-06T00:17:58.689Z,9.94444444444
2018-10-06T00:18:10.865Z,9.88888888889
2018-10-06T00:18:23.017Z,9.88888888889
2018-10-06T00:18:35.172Z,9.88888888889
2018-10-06T00:18:47.325Z,9.88888888889
2018-10-06T00:18:59.467Z,9.88888888889
2018-10-06T00:19:11.613Z,9.88888888889
2018-10-06T00:19:23.788Z,9.88888888889
2018-10-06T00:19:35.972Z,9.88888888889
2018-10-06T00:19:48.157Z,9.88888888889
2018-10-06T00:20:00.463Z,9.88888888889
2018-10-06T00:20:12.648Z,9.83333333333
2018-10-06T00:20:24.818Z,9.83333333333
2018-10-06T00:20:36.989Z,9.83333333333
2018-10-06T00:20:49.168Z,9.83333333333
2018-10-06T00:21:01.340Z,9.83333333333
2018-10-06T00:21:13.528Z,9.83333333333
2018-10-06T00:21:25.855Z,9.83333333333
2018-10-06T00:21:38.018Z,9.83333333333
2018-10-06T00:21:50.541Z,9.83333333333
2018-10-06T00:22:02.704Z,9.83333333333
2018-10-06T00:22:14.884Z,9.83333333333
2018-10-06T00:22:27.053Z,9.77777777778
2018-10-06T00:22:39.208Z,9.77777777778
2018-10-06T00:22:51.369Z,9.77777777778
2018-10-06T00:23:03.538Z,9.77777777778
2018-10-06T00:23:15.694Z,9.77777777778
2018-10-06T00:23:27.879Z,9.77777777778
2018-10-06T00:23:40.042Z,9.77777777778
2018-10-06T00:23:52.224Z,9.77777777778
2018-10-06T00:24:04.653Z,9.77777777778
2018-10-06T00:24:16.825Z,9.77777777778
2018-10-06T00:24:28.989Z,9.77777777778
2018-10-06T00:24:41.126Z,9.72222222222
2018-10-06T00:24:53.289Z,9.77777777778
2018-10-06T00:25:05.461Z,9.72222222222
2018-10-06T00:25:17.611Z,9.72222222222
2018-10-06T00:25:29.775Z,9.72222222222
2018-10-06T00:25:41.922Z,9.72222222222
2018-10-06T00:25:54.087Z,9.72222222222
2018-10-06T00:26:06.236Z,9.72222222222
2018-10-06T00:26:18.418Z,9.72222222222
2018-10-06T00:26:30.584Z,9.72222222222
2018-10-06T00:26:42.729Z,9.72222222222
2018-10-06T00:26:54.883Z,9.72222222222
2018-10-06T00:27:07.073Z,9.72222222222
2018-10-06T00:27:19.281Z,9.72222222222
2018-10-06T00:27:31.448Z,9.66666666667
2018-10-06T00:27:43.606Z,9.72222222222
2018-10-06T00:27:55.762Z,9.66666666667
2018-10-06T00:28:07.909Z,9.66666666667
2018-10-06T00:28:20.063Z,9.66666666667
2018-10-06T00:28:32.223Z,9.66666666667
2018-10-06T00:28:44.366Z,9.66666666667
2018-10-06T00:28:56.540Z,9.66666666667
2018-10-06T00:29:08.732Z,9.66666666667
2018-10-06T00:29:20.944Z,9.66666666667
2018-10-06T00:29:33.111Z,9.66666666667
2018-10-06T00:29:45.262Z,9.66666666667
2018-10-06T00:29:57.410Z,9.66666666667
2018-10-06T00:30:09.569Z,9.66666666667
2018-10-06T00:30:22.221Z,9.66666666667
2018-10-06T00:30:34.701Z,9.66666666667
2018-10-06T00:30:46.955Z,9.61111111111
2018-10-06T00:30:59.127Z,9.66666666667
2018-10-06T00:31:11.291Z,9.66666666667
2018-10-06T00:31:23.429Z,9.66666666667
2018-10-06T00:31:35.599Z,9.66666666667
2018-10-06T00:31:47.825Z,9.61111111111
2018-10-06T00:32:00.020Z,9.66666666667
2018-10-06T00:32:12.255Z,9.61111111111
2018-10-06T00:32:24.458Z,9.61111111111
2018-10-06T00:32:37.011Z,9.61111111111
2018-10-06T00:32:49.586Z,9.61111111111
2018-10-06T00:33:01.741Z,9.61111111111
2018-10-06T00:33:13.908Z,9.61111111111
2018-10-06T00:33:26.118Z,9.61111111111
2018-10-06T00:33:38.283Z,9.61111111111
2018-10-06T00:33:50.491Z,9.55555555556
2018-10-06T00:34:02.689Z,9.55555555556
2018-10-06T00:34:14.879Z,9.55555555556
2018-10-06T00:34:27.015Z,9.55555555556
2018-10-06T00:34:39.162Z,9.61111111111
2018-10-06T00:34:51.335Z,9.55555555556
2018-10-06T00:35:03.496Z,9.55555555556
2018-10-06T00:35:15.680Z,9.55555555556
2018-10-06T00:35:28.048Z,9.55555555556
2018-10-06T00:35:40.411Z,9.55555555556
2018-10-06T00:35:52.567Z,9.55555555556
2018-10-06T00:36:04.727Z,9.55555555556
2018-10-06T00:36:16.892Z,9.55555555556
2018-10-06T00:36:29.036Z,9.55555555556
2018-10-06T00:36:41.202Z,9.55555555556
2018-10-06T00:36:53.542Z,9.55555555556
2018-10-06T00:37:05.712Z,9.55555555556
2018-10-06T00:37:17.892Z,9.5
2018-10-06T00:37:30.096Z,9.55555555556
2018-10-06T00:37:42.413Z,9.55555555556
2018-10-06T00:37:54.580Z,9.55555555556
2018-10-06T00:38:06.737Z,9.5
2018-10-06T00:38:18.900Z,9.5
2018-10-06T00:38:31.059Z,9.55555555556
2018-10-06T00:38:43.213Z,9.5
2018-10-06T00:38:55.390Z,9.5
2018-10-06T00:39:07.557Z,9.5
2018-10-06T00:39:19.769Z,9.5
2018-10-06T00:39:31.933Z,9.5
2018-10-06T00:39:44.186Z,9.44444444444
2018-10-06T00:39:56.513Z,9.5
2018-10-06T00:40:08.733Z,9.5
2018-10-06T00:40:20.908Z,9.44444444444
2018-10-06T00:40:33.116Z,9.44444444444
2018-10-06T00:40:45.273Z,9.5
2018-10-06T00:40:57.428Z,9.5
2018-10-06T00:41:09.580Z,9.44444444444
2018-10-06T00:41:21.742Z,9.44444444444
2018-10-06T00:41:33.894Z,9.44444444444
2018-10-06T00:41:46.078Z,9.5
2018-10-06T00:41:58.222Z,9.44444444444
2018-10-06T00:42:10.381Z,9.44444444444
2018-10-06T00:42:22.535Z,9.44444444444
2018-10-06T00:42:34.714Z,9.44444444444
2018-10-06T00:42:46.877Z,9.44444444444
2018-10-06T00:42:59.137Z,9.44444444444
2018-10-06T00:43:11.311Z,9.44444444444
2018-10-06T00:43:23.483Z,9.44444444444
2018-10-06T00:43:35.624Z,9.44444444444
2018-10-06T00:43:47.827Z,9.44444444444
2018-10-06T00:44:00.004Z,9.44444444444
2018-10-06T00:44:12.959Z,9.44444444444
2018-10-06T00:44:25.112Z,9.44444444444
2018-10-06T00:44:37.339Z,9.44444444444
2018-10-06T00:44:49.496Z,9.44444444444
2018-10-06T00:45:01.813Z,9.38888888889
2018-10-06T00:45:13.977Z,9.44444444444
2018-10-06T00:45:26.122Z,9.38888888889
2018-10-06T00:45:38.279Z,9.44444444444
2018-10-06T00:45:50.469Z,9.38888888889
2018-10-06T00:46:02.637Z,9.38888888889
2018-10-06T00:46:14.788Z,9.38888888889
2018-10-06T00:46:26.936Z,9.38888888889
2018-10-06T00:46:39.113Z,9.38888888889
2018-10-06T00:46:51.269Z,9.38888888889
2018-10-06T00:47:03.506Z,9.38888888889
2018-10-06T00:47:16.644Z,9.38888888889
2018-10-06T00:47:29.872Z,9.38888888889
2018-10-06T00:47:42.050Z,9.38888888889
2018-10-06T00:47:54.211Z,9.38888888889
2018-10-06T00:48:06.364Z,9.38888888889
2018-10-06T00:48:18.547Z,9.38888888889
2018-10-06T00:48:30.716Z,9.38888888889
2018-10-06T00:48:42.892Z,9.38888888889
2018-10-06T00:48:55.073Z,9.38888888889
2018-10-06T00:49:07.231Z,9.38888888889
2018-10-06T00:49:19.385Z,9.38888888889
2018-10-06T00:49:31.631Z,9.38888888889
2018-10-06T00:49:43.794Z,9.38888888889
2018-10-06T00:49:56.245Z,9.38888888889
2018-10-06T00:50:08.409Z,9.33333333333
2018-10-06T00:50:20.561Z,9.33333333333
2018-10-06T00:50:32.724Z,9.33333333333
2018-10-06T00:50:44.890Z,9.33333333333
2018-10-06T00:50:57.040Z,9.33333333333
2018-10-06T00:51:09.221Z,9.33333333333
2018-10-06T00:51:21.368Z,9.33333333333
2018-10-06T00:51:33.528Z,9.33333333333
2018-10-06T00:51:45.695Z,9.33333333333
2018-10-06T00:51:57.872Z,9.33333333333
2018-10-06T00:52:10.015Z,9.33333333333
2018-10-06T00:52:22.178Z,9.27777777778
2018-10-06T00:52:34.320Z,9.33333333333
2018-10-06T00:52:46.481Z,9.27777777778
2018-10-06T00:52:58.632Z,9.27777777778
2018-10-06T00:53:10.782Z,9.27777777778
2018-10-06T00:53:23.096Z,9.27777777778
2018-10-06T00:53:35.244Z,9.27777777778
2018-10-06T00:53:47.406Z,9.27777777778
2018-10-06T00:53:59.575Z,9.27777777778
2018-10-06T00:54:11.728Z,9.27777777778
2018-10-06T00:54:23.879Z,9.27777777778
2018-10-06T00:54:36.031Z,9.27777777778
2018-10-06T00:54:48.204Z,9.27777777778
2018-10-06T00:55:00.359Z,9.27777777778
2018-10-06T00:55:12.512Z,9.27777777778
2018-10-06T00:55:24.688Z,9.27777777778
2018-10-06T00:55:36.852Z,9.27777777778
2018-10-06T00:55:49.015Z,9.27777777778
2018-10-06T00:56:01.829Z,9.27777777778
2018-10-06T00:56:14.122Z,9.27777777778
2018-10-06T00:56:26.360Z,9.27777777778
2018-10-06T00:56:38.538Z,9.22222222222
2018-10-06T00:56:50.713Z,9.22222222222
2018-10-06T00:57:03.056Z,9.22222222222
2018-10-06T00:57:15.208Z,9.27777777778
2018-10-06T00:57:27.367Z,9.22222222222
2018-10-06T00:57:39.649Z,9.22222222222
2018-10-06T00:57:51.811Z,9.22222222222
2018-10-06T00:58:03.971Z,9.22222222222
2018-10-06T00:58:16.148Z,9.22222222222
2018-10-06T00:58:28.330Z,9.22222222222
2018-10-06T00:58:40.521Z,9.22222222222
2018-10-06T00:58:52.682Z,9.22222222222
2018-10-06T00:59:04.830Z,9.22222222222
2018-10-06T00:59:17.001Z,9.16666666667
2018-10-06T00:59:29.174Z,9.16666666667
2018-10-06T00:59:41.331Z,9.22222222222
2018-10-06T00:59:53.553Z,9.16666666667
2018-10-06T01:00:05.733Z,9.16666666667
2018-10-06T01:00:18.001Z,9.22222222222
2018-10-06T01:00:30.230Z,9.16666666667
2018-10-06T01:00:42.415Z,9.16666666667
2018-10-06T01:00:54.589Z,9.16666666667
2018-10-06T01:01:06.769Z,9.16666666667
2018-10-06T01:01:18.976Z,9.16666666667
2018-10-06T01:01:31.315Z,9.11111111111
2018-10-06T01:01:43.512Z,9.11111111111
2018-10-06T01:01:55.686Z,9.16666666667
2018-10-06T01:02:07.912Z,9.11111111111
2018-10-06T01:02:20.100Z,9.11111111111
2018-10-06T01:02:32.281Z,9.11111111111
2018-10-06T01:02:44.468Z,9.11111111111
2018-10-06T01:02:56.635Z,9.11111111111
2018-10-06T01:03:08.871Z,9.11111111111
2018-10-06T01:03:21.046Z,9.11111111111
2018-10-06T01:03:33.217Z,9.11111111111
2018-10-06T01:03:45.377Z,9.11111111111
2018-10-06T01:03:57.624Z,9.11111111111
2018-10-06T01:04:09.787Z,9.11111111111
2018-10-06T01:04:21.949Z,9.11111111111
2018-10-06T01:04:34.136Z,9.05555555556
2018-10-06T01:04:46.292Z,9.11111111111
2018-10-06T01:04:58.640Z,9.11111111111
2018-10-06T01:05:10.804Z,9.05555555556
2018-10-06T01:05:23.020Z,9.05555555556
2018-10-06T01:05:35.204Z,9.05555555556
2018-10-06T01:05:47.350Z,9.05555555556
2018-10-06T01:05:59.508Z,9.05555555556
2018-10-06T01:06:11.680Z,9.05555555556
2018-10-06T01:06:23.864Z,9.05555555556
2018-10-06T01:06:36.068Z,9.05555555556
2018-10-06T01:06:48.290Z,9.05555555556
2018-10-06T01:07:00.526Z,9.05555555556
2018-10-06T01:07:12.700Z,9
2018-10-06T01:07:24.873Z,9
2018-10-06T01:07:37.111Z,9.05555555556
2018-10-06T01:07:49.286Z,9
2018-10-06T01:08:01.511Z,9
2018-10-06T01:08:13.710Z,9.05555555556
2018-10-06T01:08:25.904Z,9
2018-10-06T01:08:38.051Z,9
2018-10-06T01:08:50.216Z,9
2018-10-06T01:09:02.377Z,9
2018-10-06T01:09:14.544Z,9
2018-10-06T01:09:26.725Z,9.05555555556
2018-10-06T01:09:39.011Z,9
2018-10-06T01:09:51.173Z,9.05555555556
2018-10-06T01:10:03.345Z,9.05555555556
2018-10-06T01:10:15.519Z,9.05555555556
2018-10-06T01:10:27.668Z,9
2018-10-06T01:10:39.905Z,9.05555555556
2018-10-06T01:10:52.107Z,9.05555555556
2018-10-06T01:11:04.282Z,9
2018-10-06T01:11:16.438Z,9
2018-10-06T01:11:28.610Z,9
2018-10-06T01:11:40.772Z,9.05555555556
2018-10-06T01:11:52.927Z,9
2018-10-06T01:12:05.086Z,9.05555555556
2018-10-06T01:12:17.253Z,9
2018-10-06T01:12:29.440Z,9.05555555556
2018-10-06T01:12:42.121Z,9.05555555556
2018-10-06T01:12:54.287Z,9.05555555556
2018-10-06T01:13:06.459Z,9.05555555556
2018-10-06T01:13:18.624Z,9
2018-10-06T01:13:30.867Z,9.05555555556
2018-10-06T01:13:43.016Z,9.05555555556
2018-10-06T01:13:55.179Z,9.05555555556
2018-10-06T01:14:07.337Z,9.05555555556
2018-10-06T01:14:19.480Z,9.05555555556
2018-10-06T01:14:31.648Z,9.05555555556
2018-10-06T01:14:43.914Z,9.05555555556
2018-10-06T01:14:56.087Z,9.05555555556
2018-10-06T01:15:08.264Z,9.05555555556
2018-10-06T01:15:20.444Z,9.05555555556
2018-10-06T01:15:32.626Z,9.11111111111
2018-10-06T01:15:44.781Z,9.05555555556
2018-10-06T01:15:56.989Z,9.11111111111
2018-10-06T01:16:09.151Z,9.05555555556
2018-10-06T01:16:21.313Z,9.11111111111
2018-10-06T01:16:33.475Z,9.11111111111
2018-10-06T01:16:45.655Z,9.11111111111
2018-10-06T01:16:57.812Z,9.11111111111
2018-10-06T01:17:10.142Z,9.11111111111
2018-10-06T01:17:22.297Z,9.11111111111
2018-10-06T01:17:34.455Z,9.11111111111
2018-10-06T01:17:46.613Z,9.11111111111
2018-10-06T01:17:58.770Z,9.11111111111
2018-10-06T01:18:10.926Z,9.11111111111
2018-10-06T01:18:23.143Z,9.11111111111
2018-10-06T01:18:35.551Z,9.11111111111
2018-10-06T01:18:47.734Z,9.16666666667
2018-10-06T01:18:59.878Z,9.11111111111
2018-10-06T01:19:12.052Z,9.16666666667
2018-10-06T01:19:24.216Z,9.11111111111
2018-10-06T01:19:36.398Z,9.16666666667
2018-10-06T01:19:48.582Z,9.16666666667
2018-10-06T01:20:00.864Z,9.16666666667
2018-10-06T01:20:13.026Z,9.16666666667
2018-10-06T01:20:25.193Z,9.16666666667
2018-10-06T01:20:37.350Z,9.16666666667
2018-10-06T01:20:49.513Z,9.16666666667
2018-10-06T01:21:01.667Z,9.16666666667
2018-10-06T01:21:13.840Z,9.16666666667
2018-10-06T01:21:26.203Z,9.16666666667
2018-10-06T01:21:38.370Z,9.16666666667
2018-10-06T01:21:50.530Z,9.16666666667
2018-10-06T01:22:02.744Z,9.16666666667
2018-10-06T01:22:14.913Z,9.16666666667
2018-10-06T01:22:27.116Z,9.16666666667
2018-10-06T01:22:39.286Z,9.16666666667
2018-10-06T01:22:51.452Z,9.16666666667
2018-10-06T01:23:03.632Z,9.16666666667
2018-10-06T01:23:15.806Z,9.16666666667
2018-10-06T01:23:27.964Z,9.16666666667
2018-10-06T01:23:40.141Z,9.16666666667
2018-10-06T01:23:52.330Z,9.16666666667
2018-10-06T01:24:04.736Z,9.22222222222
2018-10-06T01:24:16.907Z,9.16666666667
2018-10-06T01:24:29.073Z,9.22222222222
2018-10-06T01:24:41.237Z,9.22222222222
2018-10-06T01:24:53.392Z,9.22222222222
2018-10-06T01:25:05.554Z,9.16666666667
2018-10-06T01:25:17.740Z,9.16666666667
2018-10-06T01:25:29.891Z,9.16666666667
2018-10-06T01:25:42.059Z,9.16666666667
2018-10-06T01:25:54.235Z,9.16666666667
2018-10-06T01:26:06.393Z,9.16666666667
2018-10-06T01:26:18.546Z,9.16666666667
2018-10-06T01:26:30.701Z,9.22222222222
2018-10-06T01:26:42.865Z,9.22222222222
2018-10-06T01:26:55.047Z,9.16666666667
2018-10-06T01:27:07.211Z,9.16666666667
2018-10-06T01:27:19.362Z,9.16666666667
2018-10-06T01:27:31.538Z,9.16666666667
2018-10-06T01:27:43.695Z,9.16666666667
2018-10-06T01:27:55.864Z,9.22222222222
2018-10-06T01:28:08.044Z,9.16666666667
2018-10-06T01:28:20.228Z,9.22222222222
2018-10-06T01:28:32.395Z,9.22222222222
2018-10-06T01:28:44.547Z,9.16666666667
2018-10-06T01:28:56.698Z,9.16666666667
2018-10-06T01:29:08.892Z,9.22222222222
2018-10-06T01:29:21.092Z,9.16666666667
2018-10-06T01:29:33.245Z,9.16666666667
2018-10-06T01:29:45.510Z,9.16666666667
2018-10-06T01:29:57.696Z,9.16666666667
2018-10-06T01:30:09.876Z,9.16666666667
2018-10-06T01:30:22.107Z,9.16666666667
2018-10-06T01:30:34.443Z,9.22222222222
2018-10-06T01:30:46.604Z,9.22222222222
2018-10-06T01:30:58.777Z,9.16666666667
2018-10-06T01:31:10.943Z,9.16666666667
2018-10-06T01:31:23.103Z,9.22222222222
2018-10-06T01:31:35.278Z,9.16666666667
2018-10-06T01:31:47.523Z,9.22222222222
2018-10-06T01:31:59.691Z,9.16666666667
2018-10-06T01:32:11.873Z,9.16666666667
2018-10-06T01:32:24.038Z,9.16666666667
2018-10-06T01:32:36.175Z,9.16666666667
2018-10-06T01:32:49.720Z,9.16666666667
2018-10-06T01:33:01.886Z,9.16666666667
2018-10-06T01:33:14.082Z,9.22222222222
2018-10-06T01:33:26.256Z,9.16666666667
2018-10-06T01:33:38.413Z,9.16666666667
2018-10-06T01:33:50.563Z,9.22222222222
2018-10-06T01:34:02.780Z,9.16666666667
2018-10-06T01:34:14.942Z,9.16666666667
2018-10-06T01:34:27.113Z,9.16666666667
2018-10-06T01:34:39.271Z,9.16666666667
2018-10-06T01:34:51.446Z,9.16666666667
2018-10-06T01:35:03.628Z,9.16666666667
2018-10-06T01:35:15.794Z,9.16666666667
2018-10-06T01:35:28.085Z,9.16666666667
2018-10-06T01:35:40.417Z,9.16666666667
2018-10-06T01:35:52.589Z,9.16666666667
2018-10-06T01:36:04.747Z,9.16666666667
2018-10-06T01:36:16.902Z,9.16666666667
2018-10-06T01:36:29.136Z,9.16666666667
2018-10-06T01:36:41.294Z,9.16666666667
2018-10-06T01:36:53.557Z,9.16666666667
2018-10-06T01:37:05.709Z,9.16666666667
2018-10-06T01:37:17.876Z,9.16666666667
2018-10-06T01:37:30.063Z,9.16666666667
2018-10-06T01:37:42.230Z,9.16666666667
2018-10-06T01:37:54.405Z,9.16666666667
2018-10-06T01:38:06.596Z,9.11111111111
2018-10-06T01:38:18.774Z,9.16666666667
2018-10-06T01:38:30.926Z,9.11111111111
2018-10-06T01:38:43.081Z,9.11111111111
2018-10-06T01:38:55.248Z,9.16666666667
2018-10-06T01:39:07.446Z,9.11111111111
2018-10-06T01:39:19.611Z,9.11111111111
2018-10-06T01:39:31.787Z,9.11111111111
2018-10-06T01:39:44.170Z,9.11111111111
2018-10-06T01:39:56.552Z,9.11111111111
2018-10-06T01:40:08.720Z,9.05555555556
2018-10-06T01:40:20.881Z,9.05555555556
2018-10-06T01:40:33.190Z,9.05555555556
2018-10-06T01:40:45.343Z,9.05555555556
2018-10-06T01:40:57.515Z,9.11111111111
2018-10-06T01:41:09.684Z,9.05555555556
2018-10-06T01:41:21.849Z,9.05555555556
2018-10-06T01:41:34.011Z,9.05555555556
2018-10-06T01:41:46.216Z,9.05555555556
2018-10-06T01:41:58.371Z,9.05555555556
2018-10-06T01:42:10.542Z,9.05555555556
2018-10-06T01:42:22.717Z,9
2018-10-06T01:42:34.886Z,9.05555555556
2018-10-06T01:42:47.085Z,9
2018-10-06T01:42:59.476Z,9
2018-10-06T01:43:11.638Z,9
2018-10-06T01:43:23.799Z,9
2018-10-06T01:43:35.958Z,9
2018-10-06T01:43:48.105Z,9
2018-10-06T01:44:00.257Z,9
2018-10-06T01:44:12.485Z,9
2018-10-06T01:44:24.643Z,8.94444444444
2018-10-06T01:44:36.790Z,8.94444444444
2018-10-06T01:44:48.940Z,9
2018-10-06T01:45:01.178Z,9
2018-10-06T01:45:13.753Z,9
2018-10-06T01:45:25.914Z,9
2018-10-06T01:45:38.106Z,8.94444444444
2018-10-06T01:45:50.251Z,9
2018-10-06T01:46:02.397Z,8.94444444444
2018-10-06T01:46:14.547Z,8.94444444444
2018-10-06T01:46:26.686Z,8.94444444444
2018-10-06T01:46:38.846Z,8.94444444444
2018-10-06T01:46:51.058Z,8.94444444444
2018-10-06T01:47:03.294Z,8.94444444444
2018-10-06T01:47:15.537Z,8.94444444444
2018-10-06T01:47:27.781Z,8.88888888889
2018-10-06T01:47:40.027Z,8.94444444444
2018-10-06T01:47:52.254Z,8.94444444444
2018-10-06T01:48:04.481Z,8.88888888889
2018-10-06T01:48:16.642Z,8.88888888889
2018-10-06T01:48:28.793Z,8.88888888889
2018-10-06T01:48:40.931Z,8.88888888889
2018-10-06T01:48:53.074Z,8.88888888889
2018-10-06T01:49:05.230Z,8.88888888889
2018-10-06T01:49:17.380Z,8.88888888889
2018-10-06T01:49:29.860Z,8.88888888889
2018-10-06T01:49:42.100Z,8.88888888889
2018-10-06T01:49:55.214Z,8.88888888889
2018-10-06T01:50:08.663Z,8.88888888889
2018-10-06T01:50:20.833Z,8.88888888889
2018-10-06T01:50:33.145Z,8.88888888889
2018-10-06T01:50:45.344Z,8.88888888889
2018-10-06T01:50:57.855Z,8.88888888889
2018-10-06T01:51:11.214Z,8.88888888889
2018-10-06T01:51:23.653Z,8.88888888889
2018-10-06T01:51:35.831Z,8.88888888889
2018-10-06T01:51:48.006Z,8.88888888889
2018-10-06T01:52:00.191Z,8.88888888889
2018-10-06T01:52:12.371Z,8.88888888889
2018-10-06T01:52:24.529Z,8.88888888889
2018-10-06T01:52:36.691Z,8.88888888889
2018-10-06T01:52:48.854Z,8.88888888889
2018-10-06T01:53:01.036Z,8.88888888889
2018-10-06T01:53:13.370Z,8.88888888889
2018-10-06T01:53:25.569Z,8.88888888889
2018-10-06T01:53:37.751Z,8.88888888889
2018-10-06T01:53:49.923Z,8.88888888889
2018-10-06T01:54:02.075Z,8.83333333333
2018-10-06T01:54:14.224Z,8.83333333333
2018-10-06T01:54:26.442Z,8.88888888889
2018-10-06T01:54:38.802Z,8.88888888889
2018-10-06T01:54:50.961Z,8.88888888889
2018-10-06T01:55:03.127Z,8.88888888889
2018-10-06T01:55:15.290Z,8.88888888889
2018-10-06T01:55:27.442Z,8.83333333333
2018-10-06T01:55:39.595Z,8.88888888889
2018-10-06T01:55:51.807Z,8.88888888889
2018-10-06T01:56:03.973Z,8.88888888889
2018-10-06T01:56:16.144Z,8.83333333333
2018-10-06T01:56:28.331Z,8.88888888889
2018-10-06T01:56:40.495Z,8.88888888889
2018-10-06T01:56:52.660Z,8.88888888889
2018-10-06T01:57:04.798Z,8.88888888889
2018-10-06T01:57:16.959Z,8.83333333333
2018-10-06T01:57:29.172Z,8.88888888889
2018-10-06T01:57:41.337Z,8.88888888889
2018-10-06T01:57:53.491Z,8.88888888889
2018-10-06T01:58:05.639Z,8.88888888889
2018-10-06T01:58:17.797Z,8.88888888889
2018-10-06T01:58:29.982Z,8.83333333333
2018-10-06T01:58:42.155Z,8.88888888889
2018-10-06T01:58:54.311Z,8.88888888889
2018-10-06T01:59:06.487Z,8.83333333333
2018-10-06T01:59:18.662Z,8.83333333333
2018-10-06T01:59:31.203Z,8.88888888889
2018-10-06T01:59:43.377Z,8.88888888889
2018-10-06T01:59:55.862Z,8.83333333333
2018-10-06T02:00:08.034Z,8.88888888889
2018-10-06T02:00:20.282Z,8.88888888889
2018-10-06T02:00:32.570Z,8.88888888889
2018-10-06T02:00:44.735Z,8.83333333333
2018-10-06T02:00:56.914Z,8.88888888889
2018-10-06T02:01:09.068Z,8.88888888889
2018-10-06T02:01:21.240Z,8.88888888889
2018-10-06T02:01:33.595Z,8.88888888889
2018-10-06T02:01:45.788Z,8.88888888889
2018-10-06T02:01:57.979Z,8.88888888889
2018-10-06T02:02:10.161Z,8.88888888889
2018-10-06T02:02:22.328Z,8.88888888889
2018-10-06T02:02:34.478Z,8.88888888889
2018-10-06T02:02:46.652Z,8.94444444444
2018-10-06T02:02:58.883Z,8.88888888889
2018-10-06T02:03:11.069Z,8.88888888889
2018-10-06T02:03:23.443Z,8.94444444444
2018-10-06T02:03:35.670Z,8.88888888889
2018-10-06T02:03:47.855Z,8.88888888889
2018-10-06T02:04:00.154Z,8.88888888889
2018-10-06T02:04:12.338Z,8.94444444444
2018-10-06T02:04:24.529Z,8.94444444444
2018-10-06T02:04:36.694Z,8.94444444444
2018-10-06T02:04:48.875Z,8.88888888889
2018-10-06T02:05:01.265Z,8.94444444444
2018-10-06T02:05:13.422Z,8.94444444444
2018-10-06T02:05:25.598Z,8.94444444444
2018-10-06T02:05:37.766Z,8.88888888889
2018-10-06T02:05:49.935Z,8.94444444444
2018-10-06T02:06:02.104Z,8.94444444444
2018-10-06T02:06:14.265Z,8.94444444444
2018-10-06T02:06:26.434Z,8.94444444444
2018-10-06T02:06:38.609Z,8.94444444444
2018-10-06T02:06:50.778Z,8.94444444444
2018-10-06T02:07:02.954Z,8.88888888889
2018-10-06T02:07:15.146Z,8.94444444444
2018-10-06T02:07:27.294Z,8.94444444444
2018-10-06T02:07:39.459Z,8.94444444444
2018-10-06T02:07:51.619Z,8.94444444444
2018-10-06T02:08:03.781Z,8.94444444444
2018-10-06T02:08:15.938Z,8.94444444444
2018-10-06T02:08:28.226Z,8.94444444444